Omer, Michigan
Current Conditions -  °F | °C
As of 9:14 PM on Sunday 25 Jan 2015 (Local Time) from KIKW Reporting Station
Scattered Clouds Scattered Clouds  
Wind Chill: 17°   Ceiling: Unl
Heat Index: 17°   Visibility: 10mi
Dew Point:   Wind: 3mph
Humidity: 68%   Direction: 30°NNE
Pressure: 30.05"   Gusts: NA
Location:  44.05°N, 83.85°W
Report Text: KIKW 260214Z AUTO 03003KT 10SM SCT025 M08/M13 A3005 RMK AO2 T10851135
Loading
Personal Weather Stations






























Interactive Weather Map New forecast layout! Learn more

10-Day Weather Forecast

Advertisements
Track Severe Weather on mobile